Time;durP1;ratioP1;P1;durP2;ratioP2;P2;SDS_P1;SDS_P2;PMS_P1;PMS_P2;Temp;Humidity;BMP_temperature;BMP_pressure;BME280_temperature;BME280_humidity;BME280_pressure;Samples;Min_cycle;Max_cycle;Signal;HPM_P1;HPM_P2
2021/12/19 00:01:52;;;;;;;25.60;15.23;;;3.00;99.90;;;;;;4993775;28;20037;-73
2021/12/19 00:04:32;;;;;;;32.72;16.83;;;3.10;99.90;;;;;;4992760;28;20046;-73
2021/12/19 00:09:43;;;;;;;27.42;15.73;;;3.10;99.90;;;;;;4993159;28;20042;-73
2021/12/19 00:12:09;;;;;;;31.52;16.48;;;3.10;99.90;;;;;;4992862;28;20499;-73
2021/12/19 00:14:35;;;;;;;31.08;16.73;;;3.20;99.90;;;;;;4993625;28;20083;-74
2021/12/19 00:17:01;;;;;;;31.33;15.35;;;3.20;99.90;;;;;;4993575;28;20500;-73
2021/12/19 00:19:27;;;;;;;29.25;16.48;;;3.20;99.90;;;;;;4993724;28;20473;-74
2021/12/19 00:21:53;;;;;;;30.48;16.65;;;3.20;99.90;;;;;;4993697;28;20033;-73
2021/12/19 00:24:20;;;;;;;27.90;15.68;;;3.30;99.90;;;;;;4993564;28;20092;-73
2021/12/19 00:26:46;;;;;;;27.52;15.10;;;3.30;99.90;;;;;;4993605;28;20022;-73
2021/12/19 00:29:13;;;;;;;27.33;14.70;;;3.30;99.90;;;;;;4993344;28;20027;-74
2021/12/19 00:31:39;;;;;;;28.00;14.18;;;3.30;99.90;;;;;;4993228;28;20026;-72
2021/12/19 00:34:04;;;;;;;29.33;15.63;;;3.30;99.90;;;;;;4993351;28;20104;-74
2021/12/19 00:36:31;;;;;;;32.75;15.02;;;3.30;99.90;;;;;;4993105;28;20040;-72
2021/12/19 00:38:57;;;;;;;30.48;15.02;;;3.30;99.90;;;;;;4993343;28;20033;-73
2021/12/19 00:41:23;;;;;;;29.75;13.82;;;3.40;99.90;;;;;;4993290;28;20437;-74
2021/12/19 00:43:55;;;;;;;26.90;13.18;;;3.30;99.90;;;;;;4993239;28;20480;-74
2021/12/19 00:46:25;;;;;;;23.52;12.82;;;3.30;99.90;;;;;;4993211;28;20023;-73
2021/12/19 00:48:54;;;;;;;24.98;12.70;;;3.40;99.90;;;;;;4993341;28;20484;-73
2021/12/19 00:51:22;;;;;;;22.15;12.20;;;3.40;99.90;;;;;;4993492;28;20085;-73
2021/12/19 00:53:50;;;;;;;21.27;12.82;;;3.40;99.90;;;;;;4993321;28;20023;-74
2021/12/19 00:56:16;;;;;;;27.25;13.10;;;3.40;99.90;;;;;;4993243;28;20034;-74
2021/12/19 00:58:43;;;;;;;30.27;13.90;;;3.40;99.90;;;;;;4993384;28;20110;-73
2021/12/19 01:01:11;;;;;;;25.65;13.75;;;3.40;99.90;;;;;;4993181;28;20022;-73
2021/12/19 01:03:37;;;;;;;24.73;12.75;;;3.40;99.90;;;;;;4993097;28;20132;-73
2021/12/19 01:06:04;;;;;;;25.10;11.45;;;3.40;99.90;;;;;;4993109;28;20042;-73
2021/12/19 01:08:30;;;;;;;21.63;11.27;;;3.40;99.90;;;;;;4991515;28;20046;-74
2021/12/19 01:10:56;;;;;;;25.30;12.55;;;3.40;99.90;;;;;;4993154;28;20035;-73
2021/12/19 01:13:22;;;;;;;24.17;12.18;;;3.50;99.90;;;;;;4993026;28;20035;-74
2021/12/19 01:15:51;;;;;;;25.92;12.02;;;3.50;99.90;;;;;;4996161;28;20029;-73
2021/12/19 01:18:17;;;;;;;24.02;13.05;;;3.50;99.90;;;;;;4997064;28;20396;-73
2021/12/19 01:20:43;;;;;;;23.48;12.13;;;3.50;99.90;;;;;;4997082;28;20027;-73
2021/12/19 01:23:10;;;;;;;27.85;13.27;;;3.50;99.90;;;;;;4995527;28;20035;-73
2021/12/19 01:25:38;;;;;;;26.70;12.60;;;3.50;99.90;;;;;;4996885;28;20129;-73
2021/12/19 01:28:04;;;;;;;22.25;12.13;;;3.50;99.90;;;;;;4996563;28;20030;-74
2021/12/19 01:30:31;;;;;;;25.40;11.80;;;3.60;99.90;;;;;;4996445;28;20473;-74
2021/12/19 01:32:57;;;;;;;27.30;11.55;;;3.60;99.90;;;;;;4996786;28;20026;-73
2021/12/19 01:35:24;;;;;;;27.38;11.23;;;3.60;99.90;;;;;;4996184;28;20384;-74
2021/12/19 01:37:50;;;;;;;22.83;10.43;;;3.60;99.90;;;;;;4996450;28;20035;-73
2021/12/19 01:40:18;;;;;;;21.13;10.52;;;3.60;99.90;;;;;;4996567;28;20362;-74
2021/12/19 01:42:47;;;;;;;19.98;10.45;;;3.60;99.90;;;;;;4994944;28;20022;-74
2021/12/19 01:45:15;;;;;;;23.85;10.38;;;3.60;99.90;;;;;;4996172;28;20031;-73
2021/12/19 01:47:41;;;;;;;21.98;10.50;;;3.60;99.90;;;;;;4995368;28;20027;-73
2021/12/19 01:50:09;;;;;;;21.33;9.88;;;3.60;99.90;;;;;;4996324;28;20034;-73
2021/12/19 01:52:35;;;;;;;20.08;9.43;;;3.60;99.90;;;;;;4996509;28;20121;-73
2021/12/19 01:55:00;;;;;;;22.17;10.20;;;3.70;99.90;;;;;;4996397;28;20484;-73
2021/12/19 01:57:27;;;;;;;22.25;11.13;;;3.70;99.90;;;;;;4996344;28;20053;-74
2021/12/19 01:59:54;;;;;;;24.10;12.95;;;3.70;99.90;;;;;;4996267;28;20110;-74
2021/12/19 02:02:20;;;;;;;22.00;12.23;;;3.70;99.90;;;;;;4996549;28;20029;-73
2021/12/19 02:04:46;;;;;;;20.83;11.43;;;3.70;99.90;;;;;;4996196;28;20034;-74
2021/12/19 02:07:13;;;;;;;22.77;10.73;;;3.70;99.90;;;;;;4996094;28;20034;-72
2021/12/19 02:09:42;;;;;;;22.67;11.50;;;3.70;99.90;;;;;;4995830;28;20133;-74
2021/12/19 02:12:08;;;;;;;24.92;11.18;;;3.70;99.90;;;;;;4996064;28;20053;-73
2021/12/19 02:14:35;;;;;;;19.45;10.68;;;3.80;99.90;;;;;;4995916;28;20144;-74
2021/12/19 02:17:02;;;;;;;21.15;10.82;;;3.70;99.90;;;;;;4996225;28;20030;-74
2021/12/19 02:19:30;;;;;;;20.15;11.00;;;3.70;99.90;;;;;;4996031;28;20030;-74
2021/12/19 02:21:55;;;;;;;18.05;10.63;;;3.70;99.90;;;;;;4996028;28;20104;-74
2021/12/19 02:24:22;;;;;;;20.13;10.50;;;3.70;99.90;;;;;;4996000;28;20038;-74
2021/12/19 02:26:48;;;;;;;24.05;12.10;;;3.70;99.90;;;;;;4995106;28;20441;-74
2021/12/19 02:29:14;;;;;;;20.23;10.52;;;3.80;99.90;;;;;;4995441;28;20523;-74
2021/12/19 02:31:41;;;;;;;19.75;11.10;;;3.80;99.90;;;;;;4995848;28;20058;-75
2021/12/19 02:34:19;;;;;;;24.20;11.70;;;3.80;99.90;;;;;;4995715;28;20485;-73
2021/12/19 02:50:07;;;;;;;19.73;9.80;;;3.80;99.90;;;;;;4995749;28;20026;-74
2021/12/19 02:52:34;;;;;;;15.10;9.52;;;3.80;99.90;;;;;;4995311;28;20023;-74
2021/12/19 02:55:00;;;;;;;20.55;10.23;;;3.80;99.90;;;;;;4995453;28;20038;-74
2021/12/19 02:57:26;;;;;;;18.60;9.70;;;3.80;99.90;;;;;;4995176;28;20023;-73
2021/12/19 02:59:52;;;;;;;22.52;10.00;;;3.80;99.90;;;;;;4995179;28;20030;-74
2021/12/19 03:02:18;;;;;;;18.92;9.35;;;3.80;99.90;;;;;;4995217;28;20034;-74
2021/12/19 03:04:58;;;;;;;25.38;10.88;;;3.80;99.90;;;;;;4995139;28;20038;-73
2021/12/19 03:07:25;;;;;;;21.67;11.15;;;3.80;99.90;;;;;;4994788;28;20026;-75
2021/12/19 03:18:14;;;;;;;19.88;10.55;;;3.80;99.90;;;;;;4953661;29;20043;-74
2021/12/19 03:20:42;;;;;;;22.42;12.40;;;3.80;99.90;;;;;;4954015;29;20048;-73
2021/12/19 03:23:11;;;;;;;20.95;11.65;;;3.80;99.90;;;;;;4953724;29;20051;-74
2021/12/19 03:25:37;;;;;;;23.27;11.48;;;3.80;99.90;;;;;;4953875;29;20036;-75
2021/12/19 03:28:06;;;;;;;18.83;11.27;;;3.90;99.90;;;;;;4952904;29;20031;-74
2021/12/19 03:30:33;;;;;;;22.30;11.05;;;3.80;99.90;;;;;;4952544;29;20027;-74
2021/12/19 03:32:59;;;;;;;19.80;10.35;;;3.80;99.90;;;;;;4953281;29;20373;-74
2021/12/19 03:35:27;;;;;;;20.70;10.80;;;3.90;99.90;;;;;;4953134;29;20038;-74
2021/12/19 03:37:53;;;;;;;19.27;10.43;;;3.90;99.90;;;;;;4953002;28;20122;-75
2021/12/19 03:40:34;;;;;;;21.88;10.93;;;3.90;99.90;;;;;;4953011;29;20063;-76
2021/12/19 03:43:01;;;;;;;16.25;8.32;;;3.90;99.90;;;;;;4952733;29;20043;-75
2021/12/19 03:45:27;;;;;;;19.08;9.90;;;3.90;99.90;;;;;;4952971;29;20039;-76
2021/12/19 03:47:53;;;;;;;21.67;10.88;;;3.90;99.90;;;;;;4953263;29;20034;-74
2021/12/19 03:50:22;;;;;;;19.10;10.85;;;4.00;99.90;;;;;;4961821;28;20415;-73
2021/12/19 03:52:49;;;;;;;22.05;10.60;;;4.00;99.90;;;;;;4993282;28;20531;-73
2021/12/19 03:55:16;;;;;;;20.38;10.00;;;4.00;99.90;;;;;;4993781;28;20061;-75
2021/12/19 03:57:41;;;;;;;21.40;11.35;;;4.00;99.90;;;;;;4993827;28;20489;-75
2021/12/19 04:00:12;;;;;;;19.95;10.82;;;4.00;99.90;;;;;;4993589;28;20076;-71
2021/12/19 04:02:38;;;;;;;20.25;10.13;;;4.00;99.90;;;;;;4993625;28;20137;-73
2021/12/19 04:05:05;;;;;;;20.90;11.15;;;4.00;99.90;;;;;;4993532;28;20500;-74
2021/12/19 04:07:30;;;;;;;19.65;11.40;;;4.10;99.90;;;;;;4993272;28;20041;-73
2021/12/19 04:09:57;;;;;;;21.40;9.80;;;4.10;99.90;;;;;;4993823;28;20038;-73
2021/12/19 04:12:27;;;;;;;21.17;11.25;;;4.10;99.90;;;;;;4993566;28;20026;-72
2021/12/19 04:14:53;;;;;;;23.48;10.73;;;4.10;99.90;;;;;;4994028;28;20030;-74
2021/12/19 04:17:19;;;;;;;22.88;10.57;;;4.10;99.90;;;;;;4993526;28;20030;-76
2021/12/19 04:19:45;;;;;;;19.95;11.07;;;4.10;99.90;;;;;;4993476;28;20033;-75
2021/12/19 04:22:11;;;;;;;22.05;12.02;;;4.10;99.90;;;;;;4993614;28;20054;-74
2021/12/19 04:24:37;;;;;;;19.77;12.23;;;4.10;99.90;;;;;;4993578;28;20124;-75
2021/12/19 04:27:03;;;;;;;18.60;10.65;;;4.10;99.90;;;;;;4993146;28;20116;-76
2021/12/19 04:29:29;;;;;;;20.77;11.00;;;4.10;99.90;;;;;;4993035;28;20160;-74
2021/12/19 04:31:56;;;;;;;22.30;11.80;;;4.10;99.90;;;;;;4993746;28;20109;-73
2021/12/19 04:34:24;;;;;;;22.27;10.75;;;4.20;99.90;;;;;;4993059;28;20046;-74
2021/12/19 04:36:58;;;;;;;19.90;10.27;;;4.20;99.90;;;;;;4993125;28;20027;-74
2021/12/19 04:39:53;;;;;;;21.17;9.85;;;4.20;99.90;;;;;;4993064;28;20030;-74
2021/12/19 05:03:45;;;;;;;20.08;10.02;;;4.30;99.90;;;;;;4999362;28;20042;-74
2021/12/19 05:06:21;;;;;;;21.58;10.02;;;4.30;99.90;;;;;;4999082;28;20058;-74
2021/12/19 05:14:23;;;;;;;21.27;10.90;;;4.40;99.90;;;;;;4999003;28;20484;-74
2021/12/19 05:16:50;;;;;;;24.05;12.00;;;4.30;99.90;;;;;;4999352;28;20065;-74
2021/12/19 05:19:41;;;;;;;22.15;12.25;;;4.40;99.90;;;;;;4999229;28;20065;-73
2021/12/19 05:22:07;;;;;;;24.20;11.80;;;4.40;99.90;;;;;;4999115;28;20058;-74
2021/12/19 05:27:03;;;;;;;22.58;12.32;;;4.40;99.90;;;;;;4999608;28;20414;-74
2021/12/19 05:29:30;;;;;;;26.33;11.20;;;4.40;99.90;;;;;;4998978;28;20053;-74
2021/12/19 05:31:56;;;;;;;25.65;12.30;;;4.40;99.90;;;;;;4999446;28;20027;-73
2021/12/19 05:34:22;;;;;;;22.02;12.45;;;4.50;99.90;;;;;;4999098;28;20030;-73
2021/12/19 05:47:38;;;;;;;27.40;13.07;;;4.50;99.90;;;;;;4999090;28;20058;-74
2021/12/19 05:50:05;;;;;;;20.85;12.05;;;4.50;99.90;;;;;;4999203;28;20014;-74
2021/12/19 05:52:31;;;;;;;23.48;13.30;;;4.50;99.90;;;;;;4999252;28;20419;-74
2021/12/19 05:54:57;;;;;;;22.50;11.52;;;4.50;99.90;;;;;;4998954;28;20045;-73
2021/12/19 05:57:23;;;;;;;20.45;11.07;;;4.50;99.90;;;;;;4999284;28;20453;-76
2021/12/19 05:59:50;;;;;;;18.52;11.13;;;4.50;99.90;;;;;;4998977;28;20447;-74
2021/12/19 06:02:17;;;;;;;19.60;10.93;;;4.60;99.90;;;;;;4995349;28;20030;-75
2021/12/19 06:04:43;;;;;;;23.05;10.80;;;4.60;99.90;;;;;;4995572;28;20030;-75
2021/12/19 06:07:09;;;;;;;28.92;11.45;;;4.60;99.90;;;;;;4995971;28;20062;-74
2021/12/19 06:09:35;;;;;;;19.25;10.85;;;4.60;99.90;;;;;;4995697;28;20512;-76
2021/12/19 06:12:01;;;;;;;20.17;11.73;;;4.60;99.90;;;;;;4995761;28;20428;-75
2021/12/19 06:14:32;;;;;;;21.88;11.50;;;4.60;99.90;;;;;;4995858;28;20030;-74
2021/12/19 06:16:59;;;;;;;21.52;11.48;;;4.60;99.90;;;;;;4995813;28;20035;-73
2021/12/19 06:19:25;;;;;;;21.92;11.88;;;4.60;99.90;;;;;;4995808;28;20034;-75
2021/12/19 06:21:51;;;;;;;21.45;12.35;;;4.60;99.90;;;;;;4995834;28;20085;-75
2021/12/19 06:24:16;;;;;;;21.60;11.43;;;4.60;99.90;;;;;;4995479;28;20042;-75
2021/12/19 06:26:42;;;;;;;22.38;11.60;;;4.60;99.90;;;;;;4995683;28;20046;-74
2021/12/19 06:29:08;;;;;;;21.70;11.75;;;4.60;99.90;;;;;;4995310;28;20048;-75
2021/12/19 06:31:34;;;;;;;21.95;11.57;;;4.60;99.90;;;;;;4995655;28;20532;-75
2021/12/19 06:34:00;;;;;;;19.83;11.52;;;4.60;99.90;;;;;;4995644;28;20388;-75
2021/12/19 06:36:26;;;;;;;18.30;11.23;;;4.60;99.90;;;;;;4995268;28;20030;-75
2021/12/19 06:38:52;;;;;;;20.90;10.88;;;4.60;99.90;;;;;;4995345;28;20022;-75
2021/12/19 06:41:19;;;;;;;17.05;9.57;;;4.70;99.90;;;;;;4995046;28;20385;-75
2021/12/19 06:43:45;;;;;;;20.73;10.68;;;4.70;99.90;;;;;;4995267;28;20040;-73
2021/12/19 06:46:12;;;;;;;21.08;11.85;;;4.70;99.90;;;;;;4995311;28;20034;-73
2021/12/19 06:48:37;;;;;;;21.38;12.23;;;4.70;99.90;;;;;;4995362;28;20034;-73
2021/12/19 06:51:03;;;;;;;27.08;12.18;;;4.70;99.90;;;;;;4995199;28;20084;-72
2021/12/19 06:53:29;;;;;;;24.13;13.15;;;4.80;99.90;;;;;;4995131;28;20499;-72
2021/12/19 06:55:56;;;;;;;25.27;12.65;;;4.80;99.90;;;;;;4995336;28;20034;-72
2021/12/19 06:58:22;;;;;;;22.58;13.88;;;4.80;99.90;;;;;;4994936;28;20019;-72
2021/12/19 07:00:48;;;;;;;23.08;12.15;;;4.80;99.90;;;;;;4994979;28;20549;-73
2021/12/19 07:03:15;;;;;;;26.35;13.98;;;4.70;99.90;;;;;;4991693;28;20027;-72
2021/12/19 07:05:42;;;;;;;26.27;15.30;;;4.80;99.90;;;;;;4994702;28;20048;-72
2021/12/19 07:08:08;;;;;;;28.95;15.65;;;4.80;99.90;;;;;;4994685;28;20050;-72
2021/12/19 07:10:34;;;;;;;30.30;14.50;;;4.90;99.90;;;;;;4994933;28;20362;-72
2021/12/19 07:13:00;;;;;;;29.10;16.48;;;4.90;99.90;;;;;;4994266;28;20027;-73
2021/12/19 07:15:27;;;;;;;28.40;16.15;;;4.90;99.90;;;;;;4994229;28;20461;-73
2021/12/19 07:17:53;;;;;;;31.27;17.00;;;4.90;99.90;;;;;;4994729;28;20077;-72
2021/12/19 07:20:19;;;;;;;30.95;17.17;;;5.00;99.90;;;;;;4994716;28;20472;-72
2021/12/19 07:22:45;;;;;;;26.13;15.40;;;5.00;99.90;;;;;;4994797;28;20032;-72
2021/12/19 07:25:11;;;;;;;24.58;13.52;;;5.00;99.90;;;;;;4994596;28;20038;-73
2021/12/19 07:27:37;;;;;;;24.95;13.13;;;5.00;99.90;;;;;;4994190;28;20113;-73
2021/12/19 07:30:05;;;;;;;23.30;13.40;;;5.00;99.90;;;;;;4994553;28;20057;-74
2021/12/19 07:32:32;;;;;;;26.13;13.85;;;5.00;99.90;;;;;;4994442;28;20457;-71
2021/12/19 07:34:57;;;;;;;26.48;13.77;;;5.00;99.90;;;;;;4992949;28;20022;-72
2021/12/19 07:37:24;;;;;;;21.38;12.07;;;5.00;99.90;;;;;;4994131;28;20168;-70
2021/12/19 07:40:10;;;;;;;22.88;12.40;;;5.00;99.90;;;;;;4994436;28;20026;-72
2021/12/19 07:42:36;;;;;;;24.10;13.80;;;5.00;99.90;;;;;;4994079;28;20033;-73
2021/12/19 07:45:03;;;;;;;20.42;12.07;;;5.00;99.90;;;;;;4993877;28;20042;-72
2021/12/19 07:47:29;;;;;;;22.98;12.25;;;4.90;99.90;;;;;;4993527;28;20370;-73
2021/12/19 07:49:54;;;;;;;25.10;12.98;;;5.00;99.90;;;;;;4993589;28;20037;-72
2021/12/19 07:52:20;;;;;;;26.08;13.25;;;5.00;99.90;;;;;;4993967;28;20026;-72
2021/12/19 07:54:46;;;;;;;22.15;12.32;;;5.00;99.90;;;;;;4994094;28;20026;-72
2021/12/19 07:57:12;;;;;;;24.20;13.35;;;5.00;99.90;;;;;;4991953;28;20057;-73
2021/12/19 07:59:38;;;;;;;25.27;14.27;;;5.00;99.90;;;;;;4993112;28;20087;-72
2021/12/19 08:02:04;;;;;;;24.58;13.65;;;5.10;99.90;;;;;;4993502;28;20378;-71
2021/12/19 08:04:31;;;;;;;26.23;14.52;;;5.20;99.90;;;;;;4993146;28;20096;-72
2021/12/19 08:06:57;;;;;;;24.77;13.32;;;5.30;99.90;;;;;;4992838;28;20052;-72
2021/12/19 08:09:35;;;;;;;26.13;12.05;;;5.30;99.90;;;;;;4992883;28;20050;-73
2021/12/19 08:12:03;;;;;;;21.83;12.70;;;5.30;99.90;;;;;;4992769;28;20076;-72
2021/12/19 08:14:29;;;;;;;20.48;10.55;;;5.40;99.90;;;;;;4993108;28;20030;-71
2021/12/19 08:16:55;;;;;;;21.73;11.80;;;5.40;99.90;;;;;;4992704;28;20536;-72
2021/12/19 08:19:22;;;;;;;22.67;11.77;;;5.50;99.90;;;;;;4992152;28;20105;-72
2021/12/19 08:21:48;;;;;;;20.92;11.70;;;5.50;99.90;;;;;;4992879;28;20106;-72
2021/12/19 08:24:14;;;;;;;21.13;10.82;;;5.50;99.90;;;;;;4992187;28;20034;-71
2021/12/19 08:26:42;;;;;;;21.65;12.68;;;5.60;99.90;;;;;;5002156;28;20030;-70
2021/12/19 08:29:10;;;;;;;19.60;10.80;;;5.60;99.90;;;;;;5012928;28;20053;-72
2021/12/19 08:31:38;;;;;;;23.10;13.20;;;5.70;99.90;;;;;;5012873;28;20029;-72
2021/12/19 08:34:03;;;;;;;23.02;12.32;;;5.80;99.90;;;;;;5013169;28;20022;-72
2021/12/19 08:36:48;;;;;;;24.52;12.98;;;6.00;99.90;;;;;;5012505;28;20049;-68
2021/12/19 08:39:14;;;;;;;24.02;12.02;;;6.00;99.90;;;;;;5012308;28;20022;-69
2021/12/19 08:41:40;;;;;;;22.25;12.27;;;6.10;99.90;;;;;;5012663;28;20113;-69
2021/12/19 08:44:07;;;;;;;25.90;14.27;;;6.20;99.90;;;;;;5012713;28;20118;-71
2021/12/19 08:46:35;;;;;;;25.23;14.35;;;6.30;99.90;;;;;;5012643;28;20179;-70
2021/12/19 08:49:03;;;;;;;26.58;15.50;;;6.50;99.90;;;;;;5012362;28;20022;-74
2021/12/19 08:51:29;;;;;;;26.35;14.88;;;6.60;99.90;;;;;;5012375;28;20051;-71
2021/12/19 08:53:55;;;;;;;25.55;14.05;;;6.60;99.90;;;;;;5012479;28;20061;-73
2021/12/19 08:56:21;;;;;;;22.20;13.15;;;6.80;99.90;;;;;;5012107;28;20018;-71
2021/12/19 08:58:47;;;;;;;24.63;12.75;;;7.00;99.90;;;;;;5010557;28;20033;-73
2021/12/19 09:01:13;;;;;;;21.83;12.80;;;7.20;99.90;;;;;;5012055;28;20072;-73
2021/12/19 09:03:39;;;;;;;23.90;11.90;;;7.30;99.90;;;;;;5012475;28;20030;-72
2021/12/19 09:06:06;;;;;;;24.02;12.90;;;7.40;99.90;;;;;;5012699;28;20018;-74
2021/12/19 09:08:32;;;;;;;19.05;10.30;;;7.40;99.80;;;;;;5011915;28;20053;-73
2021/12/19 09:10:58;;;;;;;22.10;11.18;;;7.30;98.50;;;;;;5012496;28;20140;-72
2021/12/19 09:13:24;;;;;;;23.95;12.18;;;7.30;99.90;;;;;;5012238;28;20026;-72
2021/12/19 09:15:51;;;;;;;19.80;10.23;;;7.40;99.00;;;;;;5012170;28;20116;-73
2021/12/19 09:18:17;;;;;;;26.75;12.55;;;7.70;98.70;;;;;;5012980;28;20102;-72
2021/12/19 09:20:43;;;;;;;20.15;10.77;;;7.80;97.40;;;;;;5012352;28;20444;-73
2021/12/19 09:23:11;;;;;;;21.05;10.82;;;7.90;97.90;;;;;;5012156;28;20026;-73
2021/12/19 09:25:38;;;;;;;21.08;10.20;;;7.80;95.70;;;;;;5012062;28;20103;-74
2021/12/19 09:28:04;;;;;;;19.08;9.32;;;7.90;95.50;;;;;;5011980;28;20057;-73
2021/12/19 09:30:31;;;;;;;20.92;10.15;;;7.80;94.90;;;;;;5012335;28;20029;-73
2021/12/19 09:32:56;;;;;;;16.90;10.00;;;7.90;95.40;;;;;;5012262;28;20022;-75
2021/12/19 09:35:23;;;;;;;20.80;11.38;;;7.90;94.70;;;;;;5013101;28;20446;-73
2021/12/19 09:37:49;;;;;;;17.95;10.48;;;7.80;96.60;;;;;;5015813;28;20028;-74
2021/12/19 09:40:20;;;;;;;17.92;10.75;;;7.60;95.80;;;;;;5016051;28;20124;-73
2021/12/19 09:42:49;;;;;;;23.88;11.43;;;7.50;96.00;;;;;;5015323;28;20033;-73
2021/12/19 09:45:16;;;;;;;24.42;12.45;;;7.50;96.60;;;;;;4998977;28;20551;-75
2021/12/19 09:47:42;;;;;;;22.95;12.45;;;7.70;97.80;;;;;;4996063;28;20114;-73
2021/12/19 09:50:09;;;;;;;25.63;13.13;;;7.90;99.00;;;;;;4996065;28;20481;-72
2021/12/19 09:52:35;;;;;;;25.50;13.60;;;8.20;99.30;;;;;;4994789;28;20029;-74
2021/12/19 09:55:02;;;;;;;25.75;14.75;;;8.20;98.30;;;;;;4995736;28;20038;-74
2021/12/19 09:57:28;;;;;;;26.20;14.57;;;8.10;98.10;;;;;;4994438;28;20047;-73
2021/12/19 09:59:55;;;;;;;27.05;16.00;;;8.00;96.40;;;;;;4996037;28;20528;-74
2021/12/19 10:02:21;;;;;;;21.90;12.98;;;7.90;97.30;;;;;;4995787;28;20026;-73
2021/12/19 10:04:47;;;;;;;30.27;16.23;;;7.90;97.00;;;;;;4995836;28;20046;-74
2021/12/19 10:07:25;;;;;;;37.72;22.45;;;7.90;96.80;;;;;;4995568;28;20027;-74
2021/12/19 10:10:10;;;;;;;32.55;18.73;;;8.00;96.30;;;;;;4995679;28;20038;-74
2021/12/19 10:12:48;;;;;;;32.50;19.80;;;8.10;96.60;;;;;;5011089;28;20022;-72
2021/12/19 10:15:16;;;;;;;20.52;11.82;;;8.20;95.60;;;;;;4995333;28;20034;-73
2021/12/19 10:17:42;;;;;;;23.05;13.30;;;8.20;94.90;;;;;;4995498;28;20104;-74
2021/12/19 10:20:15;;;;;;;18.17;10.57;;;8.20;93.60;;;;;;4995826;28;20080;-75
2021/12/19 10:22:47;;;;;;;16.58;8.35;;;8.30;94.20;;;;;;4995939;28;20050;-75
2021/12/19 10:25:13;;;;;;;16.17;8.75;;;8.30;93.20;;;;;;4995481;28;20109;-74
2021/12/19 10:27:46;;;;;;;17.67;9.65;;;8.30;91.80;;;;;;4993824;28;20080;-75
2021/12/19 10:30:32;;;;;;;21.05;8.55;;;8.20;92.10;;;;;;4995589;28;20022;-75
2021/12/19 10:33:02;;;;;;;18.63;8.30;;;8.10;91.00;;;;;;4995447;28;20034;-74
2021/12/19 10:35:33;;;;;;;19.52;10.85;;;8.10;92.20;;;;;;4995570;28;20104;-74
2021/12/19 10:38:02;;;;;;;15.45;8.10;;;8.30;92.90;;;;;;4995175;28;20166;-73
2021/12/19 10:40:29;;;;;;;14.85;8.23;;;8.30;91.60;;;;;;4978307;28;20046;-71
2021/12/19 10:43:00;;;;;;;18.08;8.82;;;8.20;91.30;;;;;;4995111;28;20110;-75
2021/12/19 10:45:47;;;;;;;18.17;9.43;;;8.20;91.50;;;;;;4994742;28;20034;-74
2021/12/19 10:48:21;;;;;;;15.18;8.73;;;8.40;92.60;;;;;;4993745;28;20041;-75
2021/12/19 10:50:50;;;;;;;15.95;7.38;;;8.50;92.40;;;;;;4994614;28;20030;-75
2021/12/19 10:53:17;;;;;;;14.40;7.68;;;8.30;91.20;;;;;;4994386;28;20088;-75
2021/12/19 10:55:46;;;;;;;14.73;7.22;;;8.30;90.60;;;;;;4995126;28;20822;-75
2021/12/19 10:58:23;;;;;;;16.23;7.97;;;8.40;90.60;;;;;;5014827;28;20026;-74
2021/12/19 11:01:06;;;;;;;15.15;7.53;;;8.50;91.90;;;;;;5014164;28;20041;-76
2021/12/19 11:03:39;;;;;;;14.88;7.78;;;8.50;90.30;;;;;;5014258;28;20491;-75
2021/12/19 11:06:20;;;;;;;16.55;7.70;;;8.50;90.80;;;;;;5014607;28;20050;-77
2021/12/19 11:08:47;;;;;;;16.80;8.82;;;8.40;90.30;;;;;;5014273;28;20045;-77
2021/12/19 11:11:29;;;;;;;18.70;8.90;;;8.40;88.70;;;;;;5014407;28;20034;-77
2021/12/19 11:13:55;;;;;;;17.73;8.83;;;8.30;89.60;;;;;;5014549;28;20022;-77
2021/12/19 11:16:21;;;;;;;15.48;7.50;;;8.40;90.50;;;;;;5014309;28;20018;-76
2021/12/19 11:18:48;;;;;;;20.17;8.45;;;8.40;88.60;;;;;;5014489;28;20052;-77
2021/12/19 11:21:14;;;;;;;17.55;9.82;;;8.60;88.40;;;;;;5014237;28;20526;-76
2021/12/19 11:23:40;;;;;;;18.08;9.05;;;8.60;88.30;;;;;;5014411;28;20034;-77
2021/12/19 11:26:06;;;;;;;22.67;10.00;;;8.70;87.20;;;;;;5014169;28;20018;-77
2021/12/19 11:28:33;;;;;;;14.07;6.38;;;8.70;86.80;;;;;;5014165;28;20502;-77
2021/12/19 11:31:00;;;;;;;20.55;9.27;;;8.70;87.20;;;;;;5013755;28;20092;-77
2021/12/19 11:33:46;;;;;;;14.23;6.30;;;8.70;85.30;;;;;;5014001;28;20538;-77
2021/12/19 11:36:13;;;;;;;11.68;5.70;;;8.60;85.00;;;;;;5013943;28;20034;-78
2021/12/19 11:38:40;;;;;;;12.70;6.47;;;8.60;84.80;;;;;;5013935;28;20026;-77
2021/12/19 11:41:07;;;;;;;15.00;7.82;;;8.70;86.30;;;;;;5013662;28;20087;-78
2021/12/19 11:43:38;;;;;;;20.55;10.27;;;8.70;85.20;;;;;;5013490;28;20112;-77
2021/12/19 11:46:12;;;;;;;14.38;7.35;;;8.70;86.10;;;;;;5013612;28;20388;-76
2021/12/19 11:48:39;;;;;;;15.55;7.40;;;8.70;83.90;;;;;;5013886;28;20072;-75
2021/12/19 11:51:08;;;;;;;10.43;6.03;;;8.80;84.80;;;;;;5013456;28;20053;-78
2021/12/19 11:53:39;;;;;;;13.95;7.65;;;8.70;82.80;;;;;;5013904;28;20485;-77
2021/12/19 11:56:11;;;;;;;15.02;7.07;;;8.80;83.30;;;;;;5013836;28;20040;-76
2021/12/19 11:58:49;;;;;;;14.68;6.22;;;8.80;84.80;;;;;;5012569;28;20101;-76
2021/12/19 12:01:27;;;;;;;18.52;9.65;;;8.90;85.40;;;;;;4993744;28;20030;-75
2021/12/19 12:04:14;;;;;;;16.33;8.25;;;9.00;85.10;;;;;;4993851;28;20460;-76
2021/12/19 12:06:43;;;;;;;13.98;6.80;;;9.00;83.90;;;;;;4993402;28;20428;-77
2021/12/19 12:09:09;;;;;;;11.98;6.38;;;9.00;83.70;;;;;;4999676;28;20037;-76
2021/12/19 12:11:41;;;;;;;12.50;5.78;;;9.00;85.40;;;;;;5013473;28;20044;-79
2021/12/19 12:14:22;;;;;;;13.45;7.30;;;9.00;82.70;;;;;;5013375;28;20376;-75
2021/12/19 12:17:01;;;;;;;12.30;6.25;;;9.10;86.40;;;;;;4993853;28;20033;-73
2021/12/19 12:19:42;;;;;;;13.35;7.35;;;9.10;83.70;;;;;;4992884;28;20022;-78
2021/12/19 12:25:06;;;;;;;14.85;7.15;;;9.10;83.90;;;;;;4993657;28;20119;-73
2021/12/19 12:27:40;;;;;;;15.15;7.40;;;9.00;83.40;;;;;;4993164;28;20091;-77
2021/12/19 12:30:13;;;;;;;13.93;7.10;;;9.00;84.20;;;;;;4993424;28;20030;-69
2021/12/19 12:32:40;;;;;;;21.80;9.63;;;9.00;83.40;;;;;;4993483;28;20029;-77
2021/12/19 12:35:11;;;;;;;18.13;8.30;;;9.10;83.90;;;;;;4993296;28;20034;-76
2021/12/19 12:37:40;;;;;;;15.90;7.93;;;9.00;83.80;;;;;;4992893;28;20477;-76
2021/12/19 12:40:32;;;;;;;15.93;8.63;;;9.00;84.60;;;;;;5007684;28;20057;-78
2021/12/19 12:43:09;;;;;;;17.55;8.10;;;9.00;84.50;;;;;;5012165;28;20491;-77
2021/12/19 12:45:50;;;;;;;20.13;11.18;;;9.10;85.30;;;;;;5013144;28;20670;-77
2021/12/19 12:48:35;;;;;;;22.40;11.45;;;9.10;85.40;;;;;;5013043;28;20026;-77
2021/12/19 12:51:05;;;;;;;21.33;10.48;;;9.00;85.70;;;;;;5012896;28;20089;-77
2021/12/19 12:53:45;;;;;;;16.48;7.38;;;9.10;86.40;;;;;;5013225;28;20026;-78
2021/12/19 12:56:15;;;;;;;18.02;8.52;;;9.00;85.00;;;;;;5013022;28;20030;-76
2021/12/19 12:58:44;;;;;;;21.10;10.23;;;9.00;86.10;;;;;;5012822;28;20076;-77
2021/12/19 13:01:13;;;;;;;19.67;10.07;;;9.00;86.00;;;;;;5012908;28;20051;-75
2021/12/19 13:03:39;;;;;;;20.77;8.07;;;9.00;87.10;;;;;;5010812;28;20416;-78
2021/12/19 13:06:04;;;;;;;15.88;8.40;;;9.00;86.40;;;;;;5012657;28;20022;-78
2021/12/19 13:08:30;;;;;;;16.20;8.55;;;9.00;87.70;;;;;;5011728;28;20053;-71
2021/12/19 13:10:58;;;;;;;19.58;9.07;;;9.00;86.70;;;;;;5014521;28;20030;-72
2021/12/19 13:13:27;;;;;;;26.92;16.20;;;9.00;87.10;;;;;;5016901;28;20033;-77
2021/12/19 13:16:03;;;;;;;22.10;10.73;;;9.00;87.20;;;;;;5016538;28;20030;-78
2021/12/19 13:18:29;;;;;;;20.40;9.85;;;9.00;88.50;;;;;;5016116;28;20029;-77
2021/12/19 13:21:04;;;;;;;18.98;9.95;;;9.00;87.80;;;;;;5016856;28;20026;-78
2021/12/19 13:23:30;;;;;;;22.00;12.18;;;9.00;88.40;;;;;;5016675;28;20038;-75
2021/12/19 13:26:02;;;;;;;23.20;14.18;;;9.00;87.70;;;;;;5015754;28;20044;-76
2021/12/19 13:28:28;;;;;;;20.15;12.20;;;9.00;88.10;;;;;;5016126;28;20030;-74
2021/12/19 13:30:56;;;;;;;19.45;11.18;;;8.90;88.60;;;;;;5016218;28;20105;-76
2021/12/19 13:33:24;;;;;;;19.88;10.38;;;9.00;87.40;;;;;;5016045;28;20038;-77
2021/12/19 13:35:53;;;;;;;16.85;9.57;;;9.00;87.90;;;;;;5016113;28;20017;-78
2021/12/19 13:38:23;;;;;;;20.35;10.27;;;9.00;89.10;;;;;;5016275;28;20381;-77
2021/12/19 13:40:57;;;;;;;21.55;11.68;;;9.00;88.40;;;;;;5015910;28;20030;-76
2021/12/19 13:43:32;;;;;;;18.27;10.98;;;9.00;88.90;;;;;;5016089;28;20048;-77
2021/12/19 13:46:00;;;;;;;19.20;11.27;;;8.90;88.00;;;;;;5015816;28;20033;-74
2021/12/19 13:48:35;;;;;;;19.67;9.10;;;8.90;89.80;;;;;;5007163;28;20053;-75
2021/12/19 13:51:03;;;;;;;18.67;9.55;;;8.90;89.00;;;;;;4996486;28;20026;-75
2021/12/19 13:53:32;;;;;;;19.48;9.63;;;8.80;90.10;;;;;;4996244;28;20023;-74